Map

Track Data

SID SEASON NUMBER BASIN SUBBASIN NAME ISO_TIME NATURE LAT LON WMO_WIND WMO_PRES WMO_AGENCY TRACK_TYPE DIST2LAND LANDFALL IFLAG USA_AGENCY USA_ATCF_ID USA_LAT USA_LON USA_RECORD USA_STATUS USA_WIND USA_PRES USA_SSHS USA_R34_NE USA_R34_SE USA_R34_SW USA_R34_NW USA_R50_NE USA_R50_SE USA_R50_SW USA_R50_NW USA_R64_NE USA_R64_SE USA_R64_SW USA_R64_NW USA_POCI USA_ROCI USA_RMW USA_EYE TOKYO_LAT TOKYO_LON TOKYO_GRADE TOKYO_WIND TOKYO_PRES TOKYO_R50_DIR TOKYO_R50_LONG TOKYO_R50_SHORT TOKYO_R30_DIR TOKYO_R30_LONG TOKYO_R30_SHORT TOKYO_LAND CMA_LAT CMA_LON CMA_CAT CMA_WIND CMA_PRES HKO_LAT HKO_LON HKO_CAT HKO_WIND HKO_PRES NEWDELHI_LAT NEWDELHI_LON NEWDELHI_GRADE NEWDELHI_WIND NEWDELHI_PRES NEWDELHI_CI NEWDELHI_DP NEWDELHI_POCI REUNION_LAT REUNION_LON REUNION_TYPE REUNION_WIND REUNION_PRES REUNION_TNUM REUNION_CI REUNION_RMW REUNION_R34_NE REUNION_R34_SE REUNION_R34_SW REUNION_R34_NW REUNION_R50_NE REUNION_R50_SE REUNION_R50_SW REUNION_R50_NW REUNION_R64_NE REUNION_R64_SE REUNION_R64_SW REUNION_R64_NW BOM_LAT BOM_LON BOM_TYPE BOM_WIND BOM_PRES BOM_TNUM BOM_CI BOM_RMW BOM_R34_NE BOM_R34_SE BOM_R34_SW BOM_R34_NW BOM_R50_NE BOM_R50_SE BOM_R50_SW BOM_R50_NW BOM_R64_NE BOM_R64_SE BOM_R64_SW BOM_R64_NW BOM_ROCI BOM_POCI BOM_EYE BOM_POS_METHOD BOM_PRES_METHOD NADI_LAT NADI_LON NADI_CAT NADI_WIND NADI_PRES WELLINGTON_LAT WELLINGTON_LON WELLINGTON_WIND WELLINGTON_PRES DS824_LAT DS824_LON DS824_STAGE DS824_WIND DS824_PRES TD9636_LAT TD9636_LON TD9636_STAGE TD9636_WIND TD9636_PRES TD9635_LAT TD9635_LON TD9635_WIND TD9635_PRES TD9635_ROCI NEUMANN_LAT NEUMANN_LON NEUMANN_CLASS NEUMANN_WIND NEUMANN_PRES MLC_LAT MLC_LON MLC_CLASS MLC_WIND MLC_PRES USA_GUST BOM_GUST BOM_GUST_PER REUNION_GUST REUNION_GUST_PER USA_SEAHGT USA_SEARAD_NE USA_SEARAD_SE USA_SEARAD_SW USA_SEARAD_NW STORM_SPEED STORM_DIR
1920241N12150 1920 35 WP MM NOT_NAMED 1920-08-28 10:00:00 NR 11.8000 149.800 main 1579 1578 __________O___ -1 11.8000 149.800 7 30 290
1920241N12150 1920 35 WP MM NOT_NAMED 1920-08-28 12:00:00 NR 12.1413 148.839 main 1598 1607 __________P___ -1 12.1413 148.839 7 29 290
1920241N12150 1920 35 WP MM NOT_NAMED 1920-08-28 15:00:00 NR 12.6283 147.449 main 1646 1658 __________P___ -1 12.6283 147.449 7 27 290
1920241N12150 1920 35 WP MM NOT_NAMED 1920-08-28 18:00:00 NR 13.0593 146.197 main 1703 1703 __________P___ -1 13.0593 146.197 7 24 289
1920241N12150 1920 35 WP MM NOT_NAMED 1920-08-28 21:00:00 NR 13.4071 145.175 main 1743 1744 __________P___ -1 13.4071 145.175 7 20 289
1920241N12150 1920 35 WP MM NOT_NAMED 1920-08-28 22:00:00 NR 13.5000 144.900 main 1757 1757 __________O___ -1 13.5000 144.900 4 15 289
1920241N12150 1920 35 WP MM NOT_NAMED 1920-08-29 00:00:00 NR 13.6490 144.460 main 1774 1786 __________P___ -1 13.6490 144.460 4 11 289
1920241N12150 1920 35 WP MM NOT_NAMED 1920-08-29 03:00:00 NR 13.7994 144.022 main 1804 1804 __________P___ -1 13.7994 144.022 4 7 290
1920241N12150 1920 35 WP MM NOT_NAMED 1920-08-29 06:00:00 NR 13.8952 143.759 main 1818 1820 __________P___ -1 13.8952 143.759 4 5 291
1920241N12150 1920 35 WP MM NOT_NAMED 1920-08-29 09:00:00 NR 13.9723 143.566 main 1833 1833 __________P___ -1 13.9723 143.566 4 4 293
1920241N12150 1920 35 WP MM NOT_NAMED 1920-08-29 10:00:00 NR 14.0000 143.500 main 1835 1835 __________O___ -1 14.0000 143.500 4 5 293
1920241N12150 1920 35 WP MM NOT_NAMED 1920-08-29 12:00:00 NR 14.0696 143.327 main 1846 1840 __________P___ -1 14.0696 143.327 4 5 293
1920241N12150 1920 35 WP MM NOT_NAMED 1920-08-29 15:00:00 NR 14.1739 143.082 main 1850 1844 __________P___ -1 14.1739 143.082 4 6 294
1920241N12150 1920 35 WP MM NOT_NAMED 1920-08-29 18:00:00 NR 14.2924 142.806 main 1852 1840 __________P___ -1 14.2924 142.806 4 7 293
1920241N12150 1920 35 WP MM NOT_NAMED 1920-08-29 21:00:00 NR 14.4411 142.447 main 1840 1832 __________P___ -1 14.4411 142.447 4 8 293
1920241N12150 1920 35 WP MM NOT_NAMED 1920-08-29 22:00:00 NR 14.5000 142.300 main 1832 1792 __________O___ -1 14.5000 142.300 4 11 291
1920241N12150 1920 35 WP MM NOT_NAMED 1920-08-30 00:00:00 NR 14.6361 141.928 main 1792 1734 __________P___ -1 14.6361 141.928 4 13 291
1920241N12150 1920 35 WP MM NOT_NAMED 1920-08-30 03:00:00 NR 14.8714 141.275 main 1734 1664 __________P___ -1 14.8714 141.275 4 14 291
1920241N12150 1920 35 WP MM NOT_NAMED 1920-08-30 06:00:00 NR 15.1326 140.558 main 1664 1585 __________P___ -1 15.1326 140.558 4 15 291
1920241N12150 1920 35 WP MM NOT_NAMED 1920-08-30 09:00:00 NR 15.4074 139.833 main 1585 1566 __________P___ -1 15.4074 139.833 4 15 292
1920241N12150 1920 35 WP MM NOT_NAMED 1920-08-30 10:00:00 NR 15.5000 139.600 main 1566 1529 __________O___ -1 15.5000 139.600 4 14 293
1920241N12150 1920 35 WP MM NOT_NAMED 1920-08-30 12:00:00 NR 15.6743 139.188 main 1529 1472 __________P___ -1 15.6743 139.188 4 13 294
1920241N12150 1920 35 WP MM NOT_NAMED 1920-08-30 15:00:00 NR 15.9425 138.588 main 1472 1420 __________P___ -1 15.9425 138.588 4 13 295
1920241N12150 1920 35 WP MM NOT_NAMED 1920-08-30 18:00:00 NR 16.2189 137.999 main 1420 1369 __________P___ -1 16.2189 137.999 4 13 296
1920241N12150 1920 35 WP MM NOT_NAMED 1920-08-30 21:00:00 NR 16.5034 137.403 main 1369 1353 __________P___ -1 16.5034 137.403 4 13 296
1920241N12150 1920 35 WP MM NOT_NAMED 1920-08-30 22:00:00 NR 16.6000 137.200 main 1353 1321 __________O___ -1 16.6000 137.200 4 13 295
1920241N12150 1920 35 WP MM NOT_NAMED 1920-08-31 00:00:00 NR 16.7864 136.767 main 1321 1265 __________P___ -1 16.7864 136.767 4 14 294
1920241N12150 1920 35 WP MM NOT_NAMED 1920-08-31 03:00:00 NR 17.0722 136.105 main 1265 1213 __________P___ -1 17.0722 136.105 4 14 295
1920241N12150 1920 35 WP MM NOT_NAMED 1920-08-31 06:00:00 NR 17.3709 135.445 main 1213 1173 __________P___ -1 17.3709 135.445 4 14 296
1920241N12150 1920 35 WP MM NOT_NAMED 1920-08-31 09:00:00 NR 17.6887 134.805 main 1173 1161 __________P___ -1 17.6887 134.805 4 14 298
1920241N12150 1920 35 WP MM NOT_NAMED 1920-08-31 10:00:00 NR 17.8000 134.600 main 1161 1137 __________O___ -1 17.8000 134.600 4 13 301
1920241N12150 1920 35 WP MM NOT_NAMED 1920-08-31 12:00:00 NR 18.0375 134.208 main 1137 1104 __________P___ -1 18.0375 134.208 4 13 304
1920241N12150 1920 35 WP MM NOT_NAMED 1920-08-31 15:00:00 NR 18.4133 133.644 main 1104 1078 __________P___ -1 18.4133 133.644 4 13 306
1920241N12150 1920 35 WP MM NOT_NAMED 1920-08-31 18:00:00 NR 18.7986 133.103 main 1078 1050 __________P___ -1 18.7986 133.103 4 13 307
1920241N12150 1920 35 WP MM NOT_NAMED 1920-08-31 21:00:00 NR 19.1777 132.575 main 1056 1044 __________P___ -1 19.1777 132.575 4 13 307
1920241N12150 1920 35 WP MM NOT_NAMED 1920-08-31 22:00:00 NR 19.3000 132.400 main 1044 1023 __________O___ -1 19.3000 132.400 4 12 305
1920241N12150 1920 35 WP MM NOT_NAMED 1920-09-01 00:00:00 NR 19.5303 132.041 main 1023 979 __________P___ -1 19.5303 132.041 4 12 304
1920241N12150 1920 35 WP MM NOT_NAMED 1920-09-01 03:00:00 NR 19.8636 131.509 main 980 932 __________P___ -1 19.8636 131.509 4 12 303
1920241N12150 1920 35 WP MM NOT_NAMED 1920-09-01 06:00:00 NR 20.1849 130.986 main 934 891 __________P___ -1 20.1849 130.986 4 12 303
1920241N12150 1920 35 WP MM NOT_NAMED 1920-09-01 09:00:00 NR 20.4973 130.470 main 891 873 __________P___ -1 20.4973 130.470 4 12 303
1920241N12150 1920 35 WP MM NOT_NAMED 1920-09-01 10:00:00 NR 20.6000 130.300 main 873 840 __________O___ -1 20.6000 130.300 4 12 303
1920241N12150 1920 35 WP MM NOT_NAMED 1920-09-01 12:00:00 NR 20.8161 129.943 main 840 801 __________P___ -1 20.8161 129.943 4 12 303
1920241N12150 1920 35 WP MM NOT_NAMED 1920-09-01 15:00:00 NR 21.1345 129.413 main 801 767 __________P___ -1 21.1345 129.413 4 12 303
1920241N12150 1920 35 WP MM NOT_NAMED 1920-09-01 18:00:00 NR 21.4371 128.906 main 767 734 __________P___ -1 21.4371 128.906 4 11 303
1920241N12150 1920 35 WP MM NOT_NAMED 1920-09-01 21:00:00 NR 21.7147 128.442 main 734 720 __________P___ -1 21.7147 128.442 4 10 303
1920241N12150 1920 35 WP MM NOT_NAMED 1920-09-01 22:00:00 NR 21.8000 128.300 main 720 682 __________O___ -1 21.8000 128.300 4 9 303
1920241N12150 1920 35 WP MM NOT_NAMED 1920-09-02 00:00:00 NR 21.9530 128.040 main 682 645 __________P___ -1 21.9530 128.040 4 8 303
1920241N12150 1920 35 WP MM NOT_NAMED 1920-09-02 03:00:00 NR 22.1576 127.695 main 645 612 __________P___ -1 22.1576 127.695 4 7 303
1920241N12150 1920 35 WP MM NOT_NAMED 1920-09-02 06:00:00 NR 22.3464 127.386 main 612 575 __________P___ -1 22.3464 127.386 4 7 304
1920241N12150 1920 35 WP MM NOT_NAMED 1920-09-02 09:00:00 NR 22.5347 127.096 main 575 561 __________P___ -1 22.5347 127.096 4 7 305
1920241N12150 1920 35 WP MM NOT_NAMED 1920-09-02 10:00:00 NR 22.6000 127.000 main 561 533 __________O___ -1 22.6000 127.000 4 7 306
1920241N12150 1920 35 WP MM NOT_NAMED 1920-09-02 12:00:00 NR 22.7522 126.776 main 533 487 __________P___ -1 22.7522 126.776 4 8 307
1920241N12150 1920 35 WP MM NOT_NAMED 1920-09-02 15:00:00 NR 22.9870 126.446 main 487 450 __________P___ -1 22.9870 126.446 4 8 309
1920241N12150 1920 35 WP MM NOT_NAMED 1920-09-02 18:00:00 NR 23.2184 126.140 main 450 424 __________P___ -1 23.2184 126.140 4 7 310
1920241N12150 1920 35 WP MM NOT_NAMED 1920-09-02 21:00:00 NR 23.4339 125.875 main 424 411 __________P___ -1 23.4339 125.875 4 6 312
1920241N12150 1920 35 WP MM NOT_NAMED 1920-09-02 22:00:00 NR 23.5000 125.800 main 411 398 __________O___ -1 23.5000 125.800 4 5 316
1920241N12150 1920 35 WP MM NOT_NAMED 1920-09-03 00:00:00 NR 23.6221 125.684 main 398 383 __________P___ -1 23.6221 125.684 4 4 322
1920241N12150 1920 35 WP MM NOT_NAMED 1920-09-03 03:00:00 NR 23.7866 125.555 main 383 371 __________P___ -1 23.7866 125.555 4 4 326
1920241N12150 1920 35 WP MM NOT_NAMED 1920-09-03 06:00:00 NR 23.9316 125.452 main 371 347 __________P___ -1 23.9316 125.452 4 3 325
1920241N12150 1920 35 WP MM NOT_NAMED 1920-09-03 09:00:00 NR 24.0603 125.343 main 347 347 __________P___ -1 24.0603 125.343 4 3 321
1920241N12150 1920 35 WP MM NOT_NAMED 1920-09-03 10:00:00 NR 24.1000 125.300 main 347 335 __________O___ -1 24.1000 125.300 4 4 310
1920241N12150 1920 35 WP MM NOT_NAMED 1920-09-03 12:00:00 NR 24.1807 125.189 main 335 312 __________P___ -1 24.1807 125.189 4 4 305
1920241N12150 1920 35 WP MM NOT_NAMED 1920-09-03 15:00:00 NR 24.2891 125.004 main 312 290 __________P___ -1 24.2891 125.004 4 4 300
1920241N12150 1920 35 WP MM NOT_NAMED 1920-09-03 18:00:00 NR 24.3853 124.799 main 290 268 __________P___ -1 24.3853 124.799 4 4 295
1920241N12150 1920 35 WP MM NOT_NAMED 1920-09-03 21:00:00 NR 24.4724 124.577 main 268 258 __________P___ -1 24.4724 124.577 4 4 293
1920241N12150 1920 35 WP MM NOT_NAMED 1920-09-03 22:00:00 NR 24.5000 124.500 main 258 246 __________O___ -1 24.5000 124.500 4 4 292
1920241N12150 1920 35 WP MM NOT_NAMED 1920-09-04 00:00:00 NR 24.5529 124.355 main 246 216 __________P___ -1 24.5529 124.355 4 4 290
1920241N12150 1920 35 WP MM NOT_NAMED 1920-09-04 03:00:00 NR 24.6260 124.125 main 216 194 __________P___ -1 24.6260 124.125 4 5 288
1920241N12150 1920 35 WP MM NOT_NAMED 1920-09-04 06:00:00 NR 24.6972 123.875 main 194 162 __________P___ -1 24.6972 123.875 4 5 287
1920241N12150 1920 35 WP MM NOT_NAMED 1920-09-04 09:00:00 NR 24.7727 123.599 main 162 152 __________P___ -1 24.7727 123.599 4 5 287
1920241N12150 1920 35 WP MM NOT_NAMED 1920-09-04 10:00:00 NR 24.8000 123.500 main 152 131 __________O___ -1 24.8000 123.500 4 6 286
1920241N12150 1920 35 WP MM NOT_NAMED 1920-09-04 12:00:00 NR 24.8504 123.297 main 131 101 __________P___ -1 24.8504 123.297 4 6 285
1920241N12150 1920 35 WP MM NOT_NAMED 1920-09-04 15:00:00 NR 24.9320 122.968 main 101 60 __________P___ -1 24.9320 122.968 4 6 286
1920241N12150 1920 35 WP MM NOT_NAMED 1920-09-04 18:00:00 NR 25.0293 122.611 main 60 30 __________P___ -1 25.0293 122.611 4 7 288
1920241N12150 1920 35 WP MM NOT_NAMED 1920-09-04 21:00:00 NR 25.1519 122.231 main 30 24 __________P___ -1 25.1519 122.231 4 7 290
1920241N12150 1920 35 WP MM NOT_NAMED 1920-09-04 22:00:00 NR 25.2000 122.100 main 24 22 __________O___ -1 25.2000 122.100 4 8 293
1920241N12150 1920 35 WP MM NOT_NAMED 1920-09-05 00:00:00 NR 25.3053 121.829 main 22 15 __________P___ -1 25.3053 121.829 4 8 295
1920241N12150 1920 35 WP MM NOT_NAMED 1920-09-05 03:00:00 NR 25.4884 121.402 main 33 33 __________P___ -1 25.4884 121.402 4 9 297
1920241N12150 1920 35 WP MM NOT_NAMED 1920-09-05 06:00:00 NR 25.6959 120.967 main 68 73 __________P___ -1 25.6959 120.967 4 9 299
1920241N12150 1920 35 WP MM NOT_NAMED 1920-09-05 09:00:00 NR 25.9217 120.539 main 79 68 __________P___ -1 25.9217 120.539 4 9 301
1920241N12150 1920 35 WP MM NOT_NAMED 1920-09-05 10:00:00 NR 26.0000 120.400 main 68 31 __________O___ -1 26.0000 120.400 4 9 303
1920241N12150 1920 35 WP MM NOT_NAMED 1920-09-05 12:00:00 NR 26.1599 120.132 main 31 0 __________P___ -1 26.1599 120.132 4 9 305
1920241N12150 1920 35 WP MM NOT_NAMED 1920-09-05 15:00:00 NR 26.4067 119.748 main 9 0 __________P___ -1 26.4067 119.748 4 8 307
1920241N12150 1920 35 WP MM NOT_NAMED 1920-09-05 18:00:00 NR 26.6592 119.379 main 0 0 __________P___ -1 26.6592 119.379 4 8 308
1920241N12150 1920 35 WP MM NOT_NAMED 1920-09-05 21:00:00 NR 26.9147 119.019 main 0 0 __________P___ -1 26.9147 119.019 4 8 309
1920241N12150 1920 35 WP MM NOT_NAMED 1920-09-05 22:00:00 NR 27.0000 118.900 main 0 __________O___ -1 27.0000 118.900 7 8 309

Digital Typhoon Data and Search

About IBTrACS Database

This database is a web-friendly format of International Best Track Archive for Climate Stewardship (IBTrACS), a global best track data archive curated by NOAA dating back to 1842.

Updated: 2021-11-26